sensor_id;sensor_type;location;lat;lon;timestamp;P1;durP1;ratioP1;P2;durP2;ratioP2
52124;SDS011;38119;52.710;6.398;2023-07-31T00:02:13;7.20;;;2.92;;
52124;SDS011;38119;52.710;6.398;2023-07-31T00:04:38;4.78;;;3.13;;
52124;SDS011;38119;52.710;6.398;2023-07-31T00:07:04;4.28;;;2.75;;
52124;SDS011;38119;52.710;6.398;2023-07-31T00:09:31;5.57;;;2.50;;
52124;SDS011;38119;52.710;6.398;2023-07-31T00:12:00;6.22;;;2.90;;
52124;SDS011;38119;52.710;6.398;2023-07-31T00:14:25;5.45;;;3.00;;
52124;SDS011;38119;52.710;6.398;2023-07-31T00:16:51;4.78;;;2.90;;
52124;SDS011;38119;52.710;6.398;2023-07-31T00:19:17;5.40;;;3.15;;
52124;SDS011;38119;52.710;6.398;2023-07-31T00:21:43;6.93;;;2.80;;
52124;SDS011;38119;52.710;6.398;2023-07-31T00:24:09;5.75;;;2.70;;
52124;SDS011;38119;52.710;6.398;2023-07-31T00:26:35;4.50;;;2.55;;
52124;SDS011;38119;52.710;6.398;2023-07-31T00:29:00;4.28;;;2.50;;
52124;SDS011;38119;52.710;6.398;2023-07-31T00:31:26;6.07;;;3.00;;
52124;SDS011;38119;52.710;6.398;2023-07-31T00:33:52;4.47;;;2.53;;
52124;SDS011;38119;52.710;6.398;2023-07-31T00:36:17;5.63;;;2.67;;
52124;SDS011;38119;52.710;6.398;2023-07-31T00:38:43;7.18;;;2.70;;
52124;SDS011;38119;52.710;6.398;2023-07-31T00:41:09;3.92;;;2.42;;
52124;SDS011;38119;52.710;6.398;2023-07-31T00:43:34;5.80;;;2.45;;
52124;SDS011;38119;52.710;6.398;2023-07-31T00:46:00;3.78;;;2.28;;
52124;SDS011;38119;52.710;6.398;2023-07-31T00:48:26;4.65;;;2.70;;
52124;SDS011;38119;52.710;6.398;2023-07-31T00:50:52;4.00;;;2.47;;
52124;SDS011;38119;52.710;6.398;2023-07-31T00:53:18;3.67;;;2.20;;
52124;SDS011;38119;52.710;6.398;2023-07-31T00:55:43;4.10;;;2.17;;
52124;SDS011;38119;52.710;6.398;2023-07-31T00:58:10;4.15;;;2.17;;
52124;SDS011;38119;52.710;6.398;2023-07-31T01:00:35;3.40;;;2.17;;
52124;SDS011;38119;52.710;6.398;2023-07-31T01:03:01;2.83;;;2.00;;
52124;SDS011;38119;52.710;6.398;2023-07-31T01:05:39;4.55;;;1.80;;
52124;SDS011;38119;52.710;6.398;2023-07-31T01:08:16;5.60;;;2.10;;
52124;SDS011;38119;52.710;6.398;2023-07-31T01:10:50;2.80;;;1.80;;
52124;SDS011;38119;52.710;6.398;2023-07-31T01:13:26;2.35;;;1.77;;
52124;SDS011;38119;52.710;6.398;2023-07-31T01:15:53;3.53;;;1.85;;
52124;SDS011;38119;52.710;6.398;2023-07-31T01:18:18;2.72;;;1.55;;
52124;SDS011;38119;52.710;6.398;2023-07-31T01:20:44;3.88;;;2.08;;
52124;SDS011;38119;52.710;6.398;2023-07-31T01:26:11;2.42;;;1.40;;
52124;SDS011;38119;52.710;6.398;2023-07-31T01:31:27;2.00;;;1.60;;
52124;SDS011;38119;52.710;6.398;2023-07-31T01:33:56;2.15;;;1.42;;
52124;SDS011;38119;52.710;6.398;2023-07-31T01:36:25;2.88;;;1.40;;
52124;SDS011;38119;52.710;6.398;2023-07-31T01:38:51;3.17;;;1.55;;
52124;SDS011;38119;52.710;6.398;2023-07-31T01:41:17;3.25;;;1.52;;
52124;SDS011;38119;52.710;6.398;2023-07-31T01:43:43;2.80;;;1.70;;
52124;SDS011;38119;52.710;6.398;2023-07-31T01:46:12;2.80;;;1.50;;
52124;SDS011;38119;52.710;6.398;2023-07-31T01:48:38;2.95;;;1.65;;
52124;SDS011;38119;52.710;6.398;2023-07-31T01:51:03;2.97;;;1.50;;
52124;SDS011;38119;52.710;6.398;2023-07-31T01:53:30;2.10;;;1.48;;
52124;SDS011;38119;52.710;6.398;2023-07-31T01:55:57;2.35;;;1.45;;
52124;SDS011;38119;52.710;6.398;2023-07-31T01:58:22;2.80;;;1.40;;
52124;SDS011;38119;52.710;6.398;2023-07-31T02:00:48;1.40;;;1.30;;
52124;SDS011;38119;52.710;6.398;2023-07-31T02:03:13;2.03;;;1.30;;
52124;SDS011;38119;52.710;6.398;2023-07-31T02:05:45;2.03;;;1.33;;
52124;SDS011;38119;52.710;6.398;2023-07-31T02:08:12;2.28;;;1.48;;
52124;SDS011;38119;52.710;6.398;2023-07-31T02:10:38;3.20;;;1.70;;
52124;SDS011;38119;52.710;6.398;2023-07-31T02:13:04;2.13;;;1.40;;
52124;SDS011;38119;52.710;6.398;2023-07-31T02:15:30;2.42;;;1.50;;
52124;SDS011;38119;52.710;6.398;2023-07-31T02:17:56;1.90;;;1.40;;
52124;SDS011;38119;52.710;6.398;2023-07-31T02:20:24;3.75;;;1.65;;
52124;SDS011;38119;52.710;6.398;2023-07-31T02:22:50;1.77;;;1.63;;
52124;SDS011;38119;52.710;6.398;2023-07-31T02:25:16;1.95;;;1.60;;
52124;SDS011;38119;52.710;6.398;2023-07-31T02:27:42;2.80;;;1.77;;
52124;SDS011;38119;52.710;6.398;2023-07-31T02:30:08;3.40;;;1.42;;
52124;SDS011;38119;52.710;6.398;2023-07-31T02:32:34;2.58;;;1.40;;
52124;SDS011;38119;52.710;6.398;2023-07-31T02:35:00;2.30;;;1.80;;
52124;SDS011;38119;52.710;6.398;2023-07-31T02:37:26;3.25;;;1.67;;
52124;SDS011;38119;52.710;6.398;2023-07-31T02:39:53;4.32;;;1.90;;
52124;SDS011;38119;52.710;6.398;2023-07-31T02:42:19;2.13;;;1.63;;
52124;SDS011;38119;52.710;6.398;2023-07-31T02:44:44;2.75;;;1.60;;
52124;SDS011;38119;52.710;6.398;2023-07-31T02:47:10;5.13;;;1.70;;
52124;SDS011;38119;52.710;6.398;2023-07-31T02:49:38;2.35;;;1.70;;
52124;SDS011;38119;52.710;6.398;2023-07-31T02:52:04;5.32;;;1.92;;
52124;SDS011;38119;52.710;6.398;2023-07-31T02:54:30;2.88;;;1.75;;
52124;SDS011;38119;52.710;6.398;2023-07-31T02:56:56;4.10;;;2.28;;
52124;SDS011;38119;52.710;6.398;2023-07-31T02:59:21;3.65;;;1.73;;
52124;SDS011;38119;52.710;6.398;2023-07-31T03:01:47;5.90;;;2.30;;
52124;SDS011;38119;52.710;6.398;2023-07-31T03:04:13;4.28;;;2.10;;
52124;SDS011;38119;52.710;6.398;2023-07-31T03:06:38;3.78;;;2.25;;
52124;SDS011;38119;52.710;6.398;2023-07-31T03:09:04;3.72;;;2.38;;
52124;SDS011;38119;52.710;6.398;2023-07-31T03:11:30;3.45;;;2.28;;
52124;SDS011;38119;52.710;6.398;2023-07-31T03:13:55;6.63;;;2.10;;
52124;SDS011;38119;52.710;6.398;2023-07-31T03:16:21;5.63;;;2.58;;
52124;SDS011;38119;52.710;6.398;2023-07-31T03:18:47;5.47;;;2.38;;
52124;SDS011;38119;52.710;6.398;2023-07-31T03:21:14;5.15;;;2.30;;
52124;SDS011;38119;52.710;6.398;2023-07-31T03:23:39;3.42;;;1.92;;
52124;SDS011;38119;52.710;6.398;2023-07-31T03:26:06;3.60;;;2.15;;
52124;SDS011;38119;52.710;6.398;2023-07-31T03:28:32;4.72;;;2.30;;
52124;SDS011;38119;52.710;6.398;2023-07-31T03:30:58;4.18;;;2.50;;
52124;SDS011;38119;52.710;6.398;2023-07-31T03:33:24;6.40;;;2.42;;
52124;SDS011;38119;52.710;6.398;2023-07-31T03:35:49;5.47;;;2.28;;
52124;SDS011;38119;52.710;6.398;2023-07-31T03:38:15;5.03;;;2.42;;
52124;SDS011;38119;52.710;6.398;2023-07-31T03:40:41;4.82;;;2.20;;
52124;SDS011;38119;52.710;6.398;2023-07-31T03:43:06;4.15;;;2.20;;
52124;SDS011;38119;52.710;6.398;2023-07-31T03:45:32;7.45;;;2.90;;
52124;SDS011;38119;52.710;6.398;2023-07-31T03:47:58;6.47;;;2.72;;
52124;SDS011;38119;52.710;6.398;2023-07-31T03:50:23;7.55;;;3.20;;
52124;SDS011;38119;52.710;6.398;2023-07-31T03:52:50;5.65;;;2.58;;
52124;SDS011;38119;52.710;6.398;2023-07-31T03:55:16;6.88;;;2.53;;
52124;SDS011;38119;52.710;6.398;2023-07-31T03:57:41;4.40;;;2.78;;
52124;SDS011;38119;52.710;6.398;2023-07-31T04:00:07;6.88;;;2.60;;
52124;SDS011;38119;52.710;6.398;2023-07-31T04:02:33;4.80;;;2.50;;
52124;SDS011;38119;52.710;6.398;2023-07-31T04:04:59;5.40;;;2.67;;
52124;SDS011;38119;52.710;6.398;2023-07-31T04:07:24;5.13;;;2.60;;
52124;SDS011;38119;52.710;6.398;2023-07-31T04:09:50;3.95;;;2.42;;
52124;SDS011;38119;52.710;6.398;2023-07-31T04:12:15;5.15;;;2.45;;
52124;SDS011;38119;52.710;6.398;2023-07-31T04:14:41;6.40;;;2.70;;
52124;SDS011;38119;52.710;6.398;2023-07-31T04:17:06;7.03;;;2.97;;
52124;SDS011;38119;52.710;6.398;2023-07-31T04:19:32;6.47;;;2.72;;
52124;SDS011;38119;52.710;6.398;2023-07-31T04:21:58;7.72;;;3.10;;
52124;SDS011;38119;52.710;6.398;2023-07-31T04:24:23;13.30;;;5.20;;
52124;SDS011;38119;52.710;6.398;2023-07-31T04:26:50;16.08;;;5.45;;
52124;SDS011;38119;52.710;6.398;2023-07-31T04:29:17;16.50;;;6.03;;
52124;SDS011;38119;52.710;6.398;2023-07-31T04:31:43;16.90;;;6.07;;
52124;SDS011;38119;52.710;6.398;2023-07-31T04:34:08;18.95;;;6.43;;
52124;SDS011;38119;52.710;6.398;2023-07-31T04:36:34;21.70;;;7.20;;
52124;SDS011;38119;52.710;6.398;2023-07-31T04:39:00;21.20;;;6.97;;
52124;SDS011;38119;52.710;6.398;2023-07-31T04:41:26;22.02;;;6.97;;
52124;SDS011;38119;52.710;6.398;2023-07-31T04:43:53;24.05;;;7.43;;
52124;SDS011;38119;52.710;6.398;2023-07-31T04:46:18;18.88;;;6.75;;
52124;SDS011;38119;52.710;6.398;2023-07-31T04:48:44;22.52;;;7.15;;
52124;SDS011;38119;52.710;6.398;2023-07-31T04:51:09;23.58;;;7.13;;
52124;SDS011;38119;52.710;6.398;2023-07-31T04:53:36;21.40;;;8.25;;
52124;SDS011;38119;52.710;6.398;2023-07-31T04:56:02;28.55;;;7.93;;
52124;SDS011;38119;52.710;6.398;2023-07-31T04:58:28;26.95;;;8.40;;
52124;SDS011;38119;52.710;6.398;2023-07-31T05:00:53;23.75;;;8.05;;
52124;SDS011;38119;52.710;6.398;2023-07-31T05:03:19;27.67;;;8.07;;
52124;SDS011;38119;52.710;6.398;2023-07-31T05:05:44;20.38;;;7.97;;
52124;SDS011;38119;52.710;6.398;2023-07-31T05:08:10;25.95;;;8.32;;
52124;SDS011;38119;52.710;6.398;2023-07-31T05:10:36;26.40;;;8.98;;
52124;SDS011;38119;52.710;6.398;2023-07-31T05:13:02;31.58;;;8.00;;
52124;SDS011;38119;52.710;6.398;2023-07-31T05:15:28;28.42;;;8.40;;
52124;SDS011;38119;52.710;6.398;2023-07-31T05:17:53;30.60;;;9.10;;
52124;SDS011;38119;52.710;6.398;2023-07-31T05:20:20;25.40;;;7.95;;
52124;SDS011;38119;52.710;6.398;2023-07-31T05:22:46;31.70;;;8.80;;
52124;SDS011;38119;52.710;6.398;2023-07-31T05:25:11;27.10;;;8.90;;
52124;SDS011;38119;52.710;6.398;2023-07-31T05:27:40;30.08;;;9.77;;
52124;SDS011;38119;52.710;6.398;2023-07-31T05:30:06;29.65;;;8.52;;
52124;SDS011;38119;52.710;6.398;2023-07-31T05:32:32;28.00;;;9.27;;
52124;SDS011;38119;52.710;6.398;2023-07-31T05:34:58;29.60;;;9.10;;
52124;SDS011;38119;52.710;6.398;2023-07-31T05:37:24;30.40;;;9.30;;
52124;SDS011;38119;52.710;6.398;2023-07-31T05:39:49;31.67;;;8.82;;
52124;SDS011;38119;52.710;6.398;2023-07-31T05:42:15;31.20;;;8.48;;
52124;SDS011;38119;52.710;6.398;2023-07-31T05:44:41;28.52;;;8.95;;
52124;SDS011;38119;52.710;6.398;2023-07-31T05:47:07;27.55;;;8.68;;
52124;SDS011;38119;52.710;6.398;2023-07-31T05:49:32;28.00;;;8.95;;
52124;SDS011;38119;52.710;6.398;2023-07-31T05:51:58;28.73;;;9.23;;
52124;SDS011;38119;52.710;6.398;2023-07-31T05:54:23;22.70;;;8.38;;
52124;SDS011;38119;52.710;6.398;2023-07-31T05:56:49;28.92;;;8.98;;
52124;SDS011;38119;52.710;6.398;2023-07-31T05:59:15;26.27;;;8.40;;
52124;SDS011;38119;52.710;6.398;2023-07-31T06:01:41;22.77;;;8.88;;
52124;SDS011;38119;52.710;6.398;2023-07-31T06:04:07;28.95;;;8.30;;
52124;SDS011;38119;52.710;6.398;2023-07-31T06:06:33;26.10;;;8.32;;
52124;SDS011;38119;52.710;6.398;2023-07-31T06:08:58;40.70;;;9.93;;
52124;SDS011;38119;52.710;6.398;2023-07-31T06:11:24;23.65;;;8.70;;
52124;SDS011;38119;52.710;6.398;2023-07-31T06:13:50;27.90;;;9.10;;
52124;SDS011;38119;52.710;6.398;2023-07-31T06:16:15;25.10;;;8.23;;
52124;SDS011;38119;52.710;6.398;2023-07-31T06:18:42;31.40;;;9.95;;
52124;SDS011;38119;52.710;6.398;2023-07-31T06:21:08;24.95;;;9.32;;
52124;SDS011;38119;52.710;6.398;2023-07-31T06:23:34;28.70;;;9.65;;
52124;SDS011;38119;52.710;6.398;2023-07-31T06:25:59;22.38;;;9.40;;
52124;SDS011;38119;52.710;6.398;2023-07-31T06:28:28;26.55;;;9.60;;
52124;SDS011;38119;52.710;6.398;2023-07-31T06:30:55;28.63;;;9.35;;
52124;SDS011;38119;52.710;6.398;2023-07-31T06:33:21;25.38;;;9.13;;
52124;SDS011;38119;52.710;6.398;2023-07-31T06:35:47;27.13;;;10.13;;
52124;SDS011;38119;52.710;6.398;2023-07-31T06:38:12;22.02;;;8.65;;
52124;SDS011;38119;52.710;6.398;2023-07-31T06:40:38;20.88;;;7.88;;
52124;SDS011;38119;52.710;6.398;2023-07-31T06:43:03;16.10;;;7.20;;
52124;SDS011;38119;52.710;6.398;2023-07-31T06:45:36;19.20;;;7.05;;
52124;SDS011;38119;52.710;6.398;2023-07-31T06:48:03;17.17;;;7.00;;
52124;SDS011;38119;52.710;6.398;2023-07-31T06:50:32;16.42;;;6.90;;
52124;SDS011;38119;52.710;6.398;2023-07-31T06:52:57;16.73;;;6.57;;
52124;SDS011;38119;52.710;6.398;2023-07-31T06:55:23;17.85;;;6.28;;
52124;SDS011;38119;52.710;6.398;2023-07-31T06:57:49;15.73;;;7.05;;
52124;SDS011;38119;52.710;6.398;2023-07-31T07:00:17;16.33;;;7.07;;
52124;SDS011;38119;52.710;6.398;2023-07-31T07:02:43;18.08;;;7.68;;
52124;SDS011;38119;52.710;6.398;2023-07-31T07:05:09;23.13;;;7.35;;
52124;SDS011;38119;52.710;6.398;2023-07-31T07:07:35;16.77;;;7.03;;
52124;SDS011;38119;52.710;6.398;2023-07-31T07:10:01;16.80;;;7.25;;
52124;SDS011;38119;52.710;6.398;2023-07-31T07:12:29;15.38;;;6.85;;
52124;SDS011;38119;52.710;6.398;2023-07-31T07:14:55;13.80;;;6.30;;
52124;SDS011;38119;52.710;6.398;2023-07-31T07:17:20;14.23;;;5.32;;
52124;SDS011;38119;52.710;6.398;2023-07-31T07:19:47;10.48;;;5.40;;
52124;SDS011;38119;52.710;6.398;2023-07-31T07:22:13;11.75;;;5.40;;
52124;SDS011;38119;52.710;6.398;2023-07-31T07:24:39;12.98;;;5.32;;
52124;SDS011;38119;52.710;6.398;2023-07-31T07:27:04;13.40;;;5.00;;
52124;SDS011;38119;52.710;6.398;2023-07-31T07:29:30;11.52;;;4.40;;
52124;SDS011;38119;52.710;6.398;2023-07-31T07:31:56;12.15;;;5.28;;
52124;SDS011;38119;52.710;6.398;2023-07-31T07:34:28;10.60;;;4.65;;
52124;SDS011;38119;52.710;6.398;2023-07-31T07:36:54;9.10;;;4.07;;
52124;SDS011;38119;52.710;6.398;2023-07-31T07:39:20;9.68;;;4.05;;
52124;SDS011;38119;52.710;6.398;2023-07-31T07:41:46;8.10;;;4.00;;
52124;SDS011;38119;52.710;6.398;2023-07-31T07:44:12;9.52;;;4.35;;
52124;SDS011;38119;52.710;6.398;2023-07-31T07:46:39;9.25;;;3.97;;
52124;SDS011;38119;52.710;6.398;2023-07-31T07:49:05;7.93;;;3.55;;
52124;SDS011;38119;52.710;6.398;2023-07-31T07:51:30;8.85;;;3.85;;
52124;SDS011;38119;52.710;6.398;2023-07-31T07:54:00;8.25;;;4.20;;
52124;SDS011;38119;52.710;6.398;2023-07-31T07:56:26;7.03;;;3.67;;
52124;SDS011;38119;52.710;6.398;2023-07-31T07:58:52;6.75;;;3.53;;
52124;SDS011;38119;52.710;6.398;2023-07-31T08:01:18;8.73;;;3.83;;
52124;SDS011;38119;52.710;6.398;2023-07-31T08:03:44;8.35;;;3.40;;
52124;SDS011;38119;52.710;6.398;2023-07-31T08:06:10;6.30;;;3.35;;
52124;SDS011;38119;52.710;6.398;2023-07-31T08:08:36;6.88;;;3.40;;
52124;SDS011;38119;52.710;6.398;2023-07-31T08:11:02;9.93;;;3.50;;
52124;SDS011;38119;52.710;6.398;2023-07-31T08:13:28;5.85;;;3.33;;
52124;SDS011;38119;52.710;6.398;2023-07-31T08:15:54;7.07;;;3.17;;
52124;SDS011;38119;52.710;6.398;2023-07-31T08:18:20;6.15;;;3.33;;
52124;SDS011;38119;52.710;6.398;2023-07-31T08:20:45;6.95;;;3.10;;
52124;SDS011;38119;52.710;6.398;2023-07-31T08:23:11;4.65;;;3.08;;
52124;SDS011;38119;52.710;6.398;2023-07-31T08:25:37;6.55;;;2.85;;
52124;SDS011;38119;52.710;6.398;2023-07-31T08:28:04;5.25;;;3.38;;
52124;SDS011;38119;52.710;6.398;2023-07-31T08:30:30;5.78;;;2.97;;
52124;SDS011;38119;52.710;6.398;2023-07-31T08:32:56;5.35;;;3.08;;
52124;SDS011;38119;52.710;6.398;2023-07-31T08:35:21;6.53;;;3.15;;
52124;SDS011;38119;52.710;6.398;2023-07-31T08:37:47;4.75;;;2.90;;
52124;SDS011;38119;52.710;6.398;2023-07-31T08:40:13;5.75;;;2.65;;
52124;SDS011;38119;52.710;6.398;2023-07-31T08:42:47;3.65;;;2.42;;
52124;SDS011;38119;52.710;6.398;2023-07-31T08:45:14;4.90;;;2.58;;
52124;SDS011;38119;52.710;6.398;2023-07-31T08:47:42;3.83;;;2.70;;
52124;SDS011;38119;52.710;6.398;2023-07-31T08:50:12;5.10;;;2.72;;
52124;SDS011;38119;52.710;6.398;2023-07-31T08:52:39;4.32;;;2.47;;
52124;SDS011;38119;52.710;6.398;2023-07-31T08:55:05;5.43;;;2.53;;
52124;SDS011;38119;52.710;6.398;2023-07-31T08:57:32;3.90;;;2.47;;
52124;SDS011;38119;52.710;6.398;2023-07-31T09:00:01;3.33;;;2.10;;
52124;SDS011;38119;52.710;6.398;2023-07-31T09:02:38;3.22;;;2.05;;
52124;SDS011;38119;52.710;6.398;2023-07-31T09:05:10;2.45;;;1.90;;
52124;SDS011;38119;52.710;6.398;2023-07-31T09:07:36;4.07;;;2.13;;
52124;SDS011;38119;52.710;6.398;2023-07-31T09:10:03;3.22;;;1.92;;
52124;SDS011;38119;52.710;6.398;2023-07-31T09:12:29;2.92;;;1.75;;
52124;SDS011;38119;52.710;6.398;2023-07-31T09:14:59;2.80;;;1.90;;
52124;SDS011;38119;52.710;6.398;2023-07-31T09:17:29;2.90;;;1.90;;
52124;SDS011;38119;52.710;6.398;2023-07-31T09:19:56;2.83;;;1.60;;
52124;SDS011;38119;52.710;6.398;2023-07-31T09:22:31;3.95;;;2.30;;
52124;SDS011;38119;52.710;6.398;2023-07-31T09:25:16;3.42;;;2.05;;
52124;SDS011;38119;52.710;6.398;2023-07-31T09:27:46;3.70;;;1.90;;
52124;SDS011;38119;52.710;6.398;2023-07-31T09:30:19;2.03;;;1.70;;
52124;SDS011;38119;52.710;6.398;2023-07-31T09:32:46;2.88;;;1.90;;
52124;SDS011;38119;52.710;6.398;2023-07-31T09:35:13;2.03;;;1.70;;
52124;SDS011;38119;52.710;6.398;2023-07-31T09:37:47;2.80;;;2.00;;
52124;SDS011;38119;52.710;6.398;2023-07-31T09:40:27;2.88;;;1.90;;
52124;SDS011;38119;52.710;6.398;2023-07-31T09:42:57;1.95;;;1.65;;
52124;SDS011;38119;52.710;6.398;2023-07-31T09:45:25;2.67;;;1.90;;
52124;SDS011;38119;52.710;6.398;2023-07-31T09:47:51;3.88;;;1.80;;
52124;SDS011;38119;52.710;6.398;2023-07-31T09:50:17;2.55;;;2.10;;
52124;SDS011;38119;52.710;6.398;2023-07-31T09:52:46;3.03;;;2.00;;
52124;SDS011;38119;52.710;6.398;2023-07-31T09:55:12;2.85;;;2.10;;
52124;SDS011;38119;52.710;6.398;2023-07-31T09:57:41;2.55;;;1.83;;
52124;SDS011;38119;52.710;6.398;2023-07-31T10:00:10;3.63;;;2.25;;
52124;SDS011;38119;52.710;6.398;2023-07-31T10:02:37;2.70;;;2.00;;
52124;SDS011;38119;52.710;6.398;2023-07-31T10:05:04;3.30;;;2.20;;
52124;SDS011;38119;52.710;6.398;2023-07-31T10:07:31;2.92;;;2.17;;
52124;SDS011;38119;52.710;6.398;2023-07-31T10:10:00;2.83;;;2.03;;
52124;SDS011;38119;52.710;6.398;2023-07-31T10:12:26;3.00;;;2.50;;
52124;SDS011;38119;52.710;6.398;2023-07-31T10:14:55;2.53;;;1.90;;
52124;SDS011;38119;52.710;6.398;2023-07-31T10:17:22;3.55;;;2.45;;
52124;SDS011;38119;52.710;6.398;2023-07-31T10:19:48;2.10;;;1.90;;
52124;SDS011;38119;52.710;6.398;2023-07-31T10:22:15;2.70;;;2.17;;
52124;SDS011;38119;52.710;6.398;2023-07-31T10:24:45;3.88;;;2.10;;
52124;SDS011;38119;52.710;6.398;2023-07-31T10:27:11;2.22;;;1.80;;
52124;SDS011;38119;52.710;6.398;2023-07-31T10:29:37;2.60;;;2.20;;
52124;SDS011;38119;52.710;6.398;2023-07-31T10:32:05;2.55;;;1.92;;
52124;SDS011;38119;52.710;6.398;2023-07-31T10:34:35;2.97;;;2.08;;
52124;SDS011;38119;52.710;6.398;2023-07-31T10:40:03;3.75;;;1.85;;
52124;SDS011;38119;52.710;6.398;2023-07-31T10:45:07;2.95;;;1.70;;
52124;SDS011;38119;52.710;6.398;2023-07-31T10:47:44;2.03;;;1.70;;
52124;SDS011;38119;52.710;6.398;2023-07-31T10:50:21;2.38;;;1.70;;
52124;SDS011;38119;52.710;6.398;2023-07-31T10:57:49;2.28;;;1.70;;
52124;SDS011;38119;52.710;6.398;2023-07-31T11:00:25;2.28;;;1.40;;
52124;SDS011;38119;52.710;6.398;2023-07-31T11:03:02;1.50;;;1.40;;
52124;SDS011;38119;52.710;6.398;2023-07-31T11:08:18;1.70;;;1.60;;
52124;SDS011;38119;52.710;6.398;2023-07-31T11:10:47;1.60;;;1.50;;
52124;SDS011;38119;52.710;6.398;2023-07-31T11:13:14;1.90;;;1.65;;
52124;SDS011;38119;52.710;6.398;2023-07-31T11:15:40;1.40;;;1.30;;
52124;SDS011;38119;52.710;6.398;2023-07-31T11:18:07;2.55;;;1.13;;
52124;SDS011;38119;52.710;6.398;2023-07-31T11:20:35;1.30;;;1.20;;
52124;SDS011;38119;52.710;6.398;2023-07-31T11:23:02;1.13;;;1.08;;
52124;SDS011;38119;52.710;6.398;2023-07-31T11:25:29;1.10;;;1.00;;
52124;SDS011;38119;52.710;6.398;2023-07-31T11:27:56;1.05;;;0.95;;
52124;SDS011;38119;52.710;6.398;2023-07-31T11:30:22;1.05;;;1.05;;
52124;SDS011;38119;52.710;6.398;2023-07-31T11:32:48;0.80;;;0.80;;
52124;SDS011;38119;52.710;6.398;2023-07-31T11:35:16;1.48;;;0.70;;
52124;SDS011;38119;52.710;6.398;2023-07-31T11:37:42;0.75;;;0.75;;
52124;SDS011;38119;52.710;6.398;2023-07-31T11:40:11;1.50;;;1.08;;
52124;SDS011;38119;52.710;6.398;2023-07-31T11:42:37;2.88;;;1.00;;
52124;SDS011;38119;52.710;6.398;2023-07-31T11:45:04;1.65;;;1.02;;
52124;SDS011;38119;52.710;6.398;2023-07-31T11:47:35;4.28;;;1.33;;
52124;SDS011;38119;52.710;6.398;2023-07-31T11:50:02;1.63;;;1.35;;
52124;SDS011;38119;52.710;6.398;2023-07-31T11:52:33;2.70;;;1.70;;
52124;SDS011;38119;52.710;6.398;2023-07-31T11:55:11;2.17;;;1.30;;
52124;SDS011;38119;52.710;6.398;2023-07-31T11:57:40;3.30;;;1.70;;
52124;SDS011;38119;52.710;6.398;2023-07-31T12:00:09;5.07;;;1.75;;
52124;SDS011;38119;52.710;6.398;2023-07-31T12:02:39;3.80;;;1.30;;
52124;SDS011;38119;52.710;6.398;2023-07-31T12:05:05;3.33;;;1.55;;
52124;SDS011;38119;52.710;6.398;2023-07-31T12:07:45;4.28;;;2.13;;
52124;SDS011;38119;52.710;6.398;2023-07-31T12:10:22;3.47;;;2.10;;
52124;SDS011;38119;52.710;6.398;2023-07-31T12:13:19;5.50;;;2.03;;
52124;SDS011;38119;52.710;6.398;2023-07-31T12:15:49;7.05;;;2.20;;
52124;SDS011;38119;52.710;6.398;2023-07-31T12:18:20;6.13;;;2.38;;
52124;SDS011;38119;52.710;6.398;2023-07-31T12:20:46;4.72;;;2.42;;
52124;SDS011;38119;52.710;6.398;2023-07-31T12:28:48;5.05;;;2.70;;
52124;SDS011;38119;52.710;6.398;2023-07-31T12:33:44;5.72;;;2.67;;
52124;SDS011;38119;52.710;6.398;2023-07-31T12:36:15;10.30;;;3.17;;
52124;SDS011;38119;52.710;6.398;2023-07-31T12:38:42;6.22;;;2.40;;
52124;SDS011;38119;52.710;6.398;2023-07-31T12:41:08;9.07;;;2.97;;
52124;SDS011;38119;52.710;6.398;2023-07-31T12:43:35;7.90;;;3.10;;
52124;SDS011;38119;52.710;6.398;2023-07-31T12:46:01;7.03;;;3.20;;
52124;SDS011;38119;52.710;6.398;2023-07-31T12:48:32;10.30;;;3.30;;
52124;SDS011;38119;52.710;6.398;2023-07-31T12:50:58;12.18;;;2.85;;
52124;SDS011;38119;52.710;6.398;2023-07-31T12:53:24;8.05;;;3.15;;
52124;SDS011;38119;52.710;6.398;2023-07-31T12:55:50;8.23;;;2.72;;
52124;SDS011;38119;52.710;6.398;2023-07-31T12:58:16;6.47;;;2.38;;
52124;SDS011;38119;52.710;6.398;2023-07-31T13:00:41;4.97;;;2.80;;
52124;SDS011;38119;52.710;6.398;2023-07-31T13:03:08;9.32;;;2.90;;
52124;SDS011;38119;52.710;6.398;2023-07-31T13:05:34;5.88;;;2.60;;
52124;SDS011;38119;52.710;6.398;2023-07-31T13:08:00;5.20;;;2.60;;
52124;SDS011;38119;52.710;6.398;2023-07-31T13:10:26;7.85;;;3.00;;
52124;SDS011;38119;52.710;6.398;2023-07-31T13:12:53;9.18;;;2.83;;
52124;SDS011;38119;52.710;6.398;2023-07-31T13:15:22;6.13;;;2.60;;
52124;SDS011;38119;52.710;6.398;2023-07-31T13:17:49;6.22;;;2.45;;
52124;SDS011;38119;52.710;6.398;2023-07-31T13:20:15;8.25;;;2.60;;
52124;SDS011;38119;52.710;6.398;2023-07-31T13:22:42;6.72;;;2.60;;
52124;SDS011;38119;52.710;6.398;2023-07-31T13:25:08;6.22;;;2.65;;
52124;SDS011;38119;52.710;6.398;2023-07-31T13:27:36;8.05;;;2.90;;
52124;SDS011;38119;52.710;6.398;2023-07-31T13:30:02;9.30;;;3.13;;
52124;SDS011;38119;52.710;6.398;2023-07-31T13:32:29;8.45;;;3.30;;
52124;SDS011;38119;52.710;6.398;2023-07-31T13:34:55;7.30;;;3.38;;
52124;SDS011;38119;52.710;6.398;2023-07-31T13:37:21;8.40;;;3.17;;
52124;SDS011;38119;52.710;6.398;2023-07-31T13:39:47;10.07;;;3.58;;
52124;SDS011;38119;52.710;6.398;2023-07-31T13:42:12;12.60;;;4.25;;
52124;SDS011;38119;52.710;6.398;2023-07-31T13:44:39;9.43;;;4.38;;
52124;SDS011;38119;52.710;6.398;2023-07-31T13:47:07;6.45;;;3.78;;
52124;SDS011;38119;52.710;6.398;2023-07-31T13:49:37;9.40;;;4.38;;
52124;SDS011;38119;52.710;6.398;2023-07-31T13:52:03;6.70;;;4.10;;
52124;SDS011;38119;52.710;6.398;2023-07-31T13:54:30;8.00;;;4.20;;
52124;SDS011;38119;52.710;6.398;2023-07-31T13:56:55;8.13;;;4.25;;
52124;SDS011;38119;52.710;6.398;2023-07-31T13:59:21;7.80;;;3.45;;
52124;SDS011;38119;52.710;6.398;2023-07-31T14:01:50;6.47;;;3.60;;
52124;SDS011;38119;52.710;6.398;2023-07-31T14:04:16;7.85;;;3.20;;
52124;SDS011;38119;52.710;6.398;2023-07-31T14:06:42;7.10;;;3.65;;
52124;SDS011;38119;52.710;6.398;2023-07-31T14:09:09;8.48;;;3.63;;
52124;SDS011;38119;52.710;6.398;2023-07-31T14:11:35;8.40;;;3.58;;
52124;SDS011;38119;52.710;6.398;2023-07-31T14:14:00;8.25;;;3.58;;
52124;SDS011;38119;52.710;6.398;2023-07-31T14:16:27;8.32;;;3.65;;
52124;SDS011;38119;52.710;6.398;2023-07-31T14:18:56;11.93;;;4.28;;
52124;SDS011;38119;52.710;6.398;2023-07-31T14:21:24;7.97;;;3.45;;
52124;SDS011;38119;52.710;6.398;2023-07-31T14:23:51;7.18;;;3.75;;
52124;SDS011;38119;52.710;6.398;2023-07-31T14:26:18;9.02;;;3.75;;
52124;SDS011;38119;52.710;6.398;2023-07-31T14:28:49;7.03;;;3.55;;
52124;SDS011;38119;52.710;6.398;2023-07-31T14:31:16;9.02;;;3.35;;
52124;SDS011;38119;52.710;6.398;2023-07-31T14:33:42;8.52;;;3.58;;
52124;SDS011;38119;52.710;6.398;2023-07-31T14:36:08;7.57;;;3.20;;
52124;SDS011;38119;52.710;6.398;2023-07-31T14:38:34;7.25;;;3.47;;
52124;SDS011;38119;52.710;6.398;2023-07-31T14:40:59;9.93;;;3.40;;
52124;SDS011;38119;52.710;6.398;2023-07-31T14:43:25;8.43;;;3.33;;
52124;SDS011;38119;52.710;6.398;2023-07-31T14:45:51;7.97;;;3.03;;
52124;SDS011;38119;52.710;6.398;2023-07-31T14:48:18;7.97;;;3.40;;
52124;SDS011;38119;52.710;6.398;2023-07-31T14:50:44;5.18;;;3.30;;
52124;SDS011;38119;52.710;6.398;2023-07-31T14:53:09;9.40;;;3.40;;
52124;SDS011;38119;52.710;6.398;2023-07-31T14:55:36;9.13;;;3.35;;
52124;SDS011;38119;52.710;6.398;2023-07-31T14:58:02;7.13;;;4.03;;
52124;SDS011;38119;52.710;6.398;2023-07-31T15:00:28;6.53;;;3.60;;
52124;SDS011;38119;52.710;6.398;2023-07-31T15:02:53;8.27;;;4.00;;
52124;SDS011;38119;52.710;6.398;2023-07-31T15:05:19;8.23;;;4.00;;
52124;SDS011;38119;52.710;6.398;2023-07-31T15:07:45;8.95;;;4.30;;
52124;SDS011;38119;52.710;6.398;2023-07-31T15:10:10;8.70;;;4.55;;
52124;SDS011;38119;52.710;6.398;2023-07-31T15:12:37;6.20;;;3.67;;